Terminal Aerodrome Forecast
Issued by NWS Wilmington, OH

Current Version | Previous Version | Text Only | Print | Product List | Glossary Off
Versions: 1 2 3 4 5 6 7 8 9 10 11 12 13 14 15 16 17

847
FTUS41 KILN 151726
TAFILN
TAF
KILN 151726Z 1518/1618 23018G28KT P6SM -SHRA OVC025
     FM151900 30016G28KT P6SM OVC025
      TEMPO 1519/1522 5SM -SHRA OVC015
     FM160100 32012KT P6SM BKN025
     FM160600 33008KT P6SM BKN040=

USA.gov is the U.S. government's official web portal to all federal, state and local government web resources and services.